createdAt,value
2022-10-17T00:01:55.674Z,3.70
2022-10-17T00:06:57.417Z,3.53
2022-10-17T00:11:59.755Z,3.95
2022-10-17T00:17:02.031Z,3.63
2022-10-17T00:22:03.666Z,3.50
2022-10-17T00:27:05.487Z,3.67
2022-10-17T00:32:07.167Z,4.28
2022-10-17T00:37:08.883Z,3.78
2022-10-17T00:42:13.450Z,4.20
2022-10-17T00:47:19.739Z,4.15
2022-10-17T00:52:24.950Z,3.60
2022-10-17T00:57:29.650Z,3.75
2022-10-17T01:02:31.459Z,3.33
2022-10-17T01:07:37.156Z,3.80
2022-10-17T01:13:14.677Z,3.97
2022-10-17T01:18:34.499Z,4.25
2022-10-17T01:24:06.151Z,4.05
2022-10-17T01:29:53.049Z,3.60
2022-10-17T01:35:04.273Z,4.03
2022-10-17T01:40:11.261Z,4.07
2022-10-17T01:45:19.996Z,3.88
2022-10-17T01:50:28.270Z,3.92
2022-10-17T01:55:36.779Z,4.10
2022-10-17T02:00:44.115Z,4.07
2022-10-17T02:05:46.170Z,4.03
2022-10-17T02:10:59.659Z,3.75
2022-10-17T02:16:26.133Z,4.30
2022-10-17T02:21:36.546Z,4.20
2022-10-17T02:27:00.936Z,4.43
2022-10-17T02:37:30.359Z,4.93
2022-10-17T02:42:33.918Z,4.60
2022-10-17T02:47:42.413Z,5.45
2022-10-17T02:52:55.722Z,5.10
2022-10-17T02:58:02.807Z,5.38
2022-10-17T03:03:21.019Z,5.47
2022-10-17T03:08:23.871Z,5.60
2022-10-17T03:13:25.589Z,6.03
2022-10-17T03:18:29.458Z,5.60
2022-10-17T03:23:36.855Z,5.72
2022-10-17T03:28:40.493Z,5.15
2022-10-17T03:33:43.717Z,6.35
2022-10-17T03:38:46.164Z,5.35
2022-10-17T03:43:48.638Z,4.45
2022-10-17T03:48:50.778Z,4.43
2022-10-17T03:53:52.824Z,4.75
2022-10-17T03:58:56.999Z,6.05
2022-10-17T04:03:59.022Z,6.32
2022-10-17T04:09:06.720Z,6.55
2022-10-17T04:14:18.426Z,7.50
2022-10-17T04:19:20.896Z,7.50
2022-10-17T04:24:23.121Z,7.13
2022-10-17T04:29:53.977Z,7.00
2022-10-17T04:34:58.575Z,6.47
2022-10-17T04:40:02.615Z,6.93
2022-10-17T04:45:07.595Z,7.18
2022-10-17T04:50:11.058Z,7.95
2022-10-17T04:55:14.807Z,7.80
2022-10-17T05:00:18.819Z,8.02
2022-10-17T05:05:27.752Z,7.20
2022-10-17T05:10:31.505Z,8.13
2022-10-17T05:15:34.053Z,7.53
2022-10-17T05:20:36.962Z,8.80
2022-10-17T05:25:38.739Z,8.00
2022-10-17T05:30:40.392Z,9.00
2022-10-17T05:35:43.833Z,8.25
2022-10-17T05:40:45.639Z,8.63
2022-10-17T05:45:47.331Z,8.95
2022-10-17T05:51:09.808Z,7.40
2022-10-17T05:56:15.532Z,6.38
2022-10-17T06:01:17.638Z,6.47
2022-10-17T06:06:19.714Z,6.85
2022-10-17T06:11:23.045Z,5.93
2022-10-17T06:16:25.280Z,6.82
2022-10-17T06:21:28.399Z,6.75
2022-10-17T06:26:40.161Z,7.63
2022-10-17T06:31:43.326Z,7.28
2022-10-17T06:36:45.570Z,5.65
2022-10-17T06:41:48.333Z,6.82
2022-10-17T06:46:53.699Z,7.60
2022-10-17T06:51:56.621Z,8.32
2022-10-17T06:57:07.095Z,9.20
2022-10-17T07:02:32.793Z,12.48
2022-10-17T07:07:40.027Z,12.98
2022-10-17T07:12:46.109Z,12.60
2022-10-17T07:17:51.679Z,12.57
2022-10-17T07:22:54.233Z,14.68
2022-10-17T07:27:56.147Z,14.05
2022-10-17T07:32:58.181Z,15.50
2022-10-17T07:37:59.852Z,14.45
2022-10-17T07:43:01.943Z,13.35
2022-10-17T07:48:04.867Z,13.50
2022-10-17T07:53:06.918Z,14.02
2022-10-17T07:58:09.924Z,15.00
2022-10-17T08:03:11.665Z,17.08
2022-10-17T08:08:13.415Z,16.98
2022-10-17T08:13:15.057Z,17.30
2022-10-17T08:18:17.733Z,16.95
2022-10-17T08:23:19.303Z,17.63
2022-10-17T08:28:21.321Z,19.25
2022-10-17T08:33:23.057Z,19.85
2022-10-17T08:38:27.747Z,19.35
2022-10-17T08:44:13.333Z,19.42
2022-10-17T08:49:37.282Z,20.63
2022-10-17T08:54:43.135Z,21.15
2022-10-17T08:59:50.158Z,21.13
2022-10-17T09:04:59.319Z,21.13
2022-10-17T09:10:19.511Z,21.77
2022-10-17T09:15:44.929Z,20.15
2022-10-17T09:20:58.406Z,20.13
2022-10-17T09:26:01.910Z,18.48
2022-10-17T09:31:03.400Z,19.65
2022-10-17T09:36:13.078Z,19.13
2022-10-17T09:41:51.535Z,20.77
2022-10-17T09:47:30.099Z,22.17
2022-10-17T09:52:41.036Z,20.02
2022-10-17T09:57:56.771Z,23.38
2022-10-17T10:03:22.992Z,21.08
2022-10-17T10:08:28.955Z,20.75
2022-10-17T10:13:33.259Z,21.27
2022-10-17T10:18:36.242Z,20.98
2022-10-17T10:23:40.619Z,19.58
2022-10-17T10:28:52.018Z,20.33
2022-10-17T10:33:57.518Z,17.65
2022-10-17T10:39:02.574Z,17.50
2022-10-17T10:44:06.515Z,16.63
2022-10-17T10:49:31.099Z,14.95
2022-10-17T10:59:58.076Z,17.30
2022-10-17T11:05:19.973Z,14.90
2022-10-17T11:10:44.528Z,14.50
2022-10-17T11:16:01.938Z,14.88
2022-10-17T11:21:16.083Z,13.63
2022-10-17T11:26:27.091Z,13.68
2022-10-17T11:31:39.822Z,13.57
2022-10-17T11:36:44.487Z,13.65
2022-10-17T11:41:49.005Z,11.85
2022-10-17T11:47:01.101Z,11.70
2022-10-17T11:52:37.730Z,11.60
2022-10-17T11:58:16.270Z,10.77
2022-10-17T12:03:42.747Z,10.02
2022-10-17T12:08:58.711Z,9.85
2022-10-17T12:14:05.828Z,8.93
2022-10-17T12:19:10.699Z,8.63
2022-10-17T12:24:32.164Z,7.57
2022-10-17T12:29:33.927Z,7.10
2022-10-17T12:34:36.525Z,7.15
2022-10-17T12:39:38.098Z,7.18
2022-10-17T12:44:39.708Z,7.80
2022-10-17T12:49:46.586Z,7.40
2022-10-17T12:55:12.515Z,7.70
2022-10-17T13:00:21.094Z,7.85
2022-10-17T13:05:31.615Z,7.40
2022-10-17T13:10:43.039Z,7.55
2022-10-17T13:15:47.338Z,7.53
2022-10-17T13:21:01.350Z,6.55
2022-10-17T13:26:24.780Z,6.85
2022-10-17T13:31:29.898Z,6.20
2022-10-17T13:36:33.961Z,6.32
2022-10-17T13:41:37.093Z,6.30
2022-10-17T13:46:41.124Z,6.05
2022-10-17T13:51:48.671Z,6.00
2022-10-17T13:56:56.417Z,5.93
2022-10-17T14:02:01.530Z,5.68
2022-10-17T14:07:03.265Z,4.25
2022-10-17T14:12:16.629Z,4.60
2022-10-17T14:17:26.113Z,6.88
2022-10-17T14:22:29.486Z,5.93
2022-10-17T14:27:42.139Z,5.90
2022-10-17T14:32:43.781Z,4.82
2022-10-17T14:37:49.068Z,4.30
2022-10-17T14:42:57.125Z,4.35
2022-10-17T14:48:29.203Z,4.22
2022-10-17T14:53:30.878Z,3.85
2022-10-17T14:58:33.838Z,4.93
2022-10-17T15:03:36.540Z,3.58
2022-10-17T15:08:38.894Z,3.20
2022-10-17T15:13:45.415Z,3.45
2022-10-17T15:18:47.978Z,3.47
2022-10-17T15:23:50.406Z,3.15
2022-10-17T15:28:53.180Z,3.28
2022-10-17T15:33:55.028Z,3.05
2022-10-17T15:38:59.867Z,3.45
2022-10-17T15:44:03.602Z,3.70
2022-10-17T15:49:10.125Z,4.20
2022-10-17T15:59:22.404Z,3.60
2022-10-17T16:04:26.901Z,3.92
2022-10-17T16:09:30.267Z,3.97
2022-10-17T16:14:33.171Z,3.90
2022-10-17T16:19:35.529Z,4.00
2022-10-17T16:24:37.490Z,3.70
2022-10-17T16:29:39.079Z,4.25
2022-10-17T16:34:40.822Z,3.80
2022-10-17T16:39:42.478Z,4.57
2022-10-17T16:44:44.906Z,3.38
2022-10-17T16:49:46.725Z,3.70
2022-10-17T16:54:48.396Z,5.00
2022-10-17T16:59:50.494Z,4.75
2022-10-17T17:04:52.093Z,5.70
2022-10-17T17:09:55.677Z,3.92
2022-10-17T17:14:57.555Z,4.40
2022-10-17T17:19:59.289Z,4.40
2022-10-17T17:25:00.843Z,3.97
2022-10-17T17:30:03.387Z,4.65
2022-10-17T17:35:06.885Z,4.57
2022-10-17T17:40:08.966Z,3.60
2022-10-17T17:45:11.030Z,4.15
2022-10-17T17:50:12.663Z,4.38
2022-10-17T17:55:14.381Z,4.47
2022-10-17T18:00:16.551Z,5.03
2022-10-17T18:05:18.750Z,4.57
2022-10-17T18:10:20.379Z,4.63
2022-10-17T18:15:22.044Z,5.68
2022-10-17T18:20:23.808Z,5.28
2022-10-17T18:25:25.484Z,5.70
2022-10-17T18:30:28.974Z,6.22
2022-10-17T18:35:35.310Z,7.85
2022-10-17T18:40:38.255Z,6.13
2022-10-17T18:45:41.418Z,6.25
2022-10-17T18:50:43.044Z,4.95
2022-10-17T19:00:51.846Z,5.57
2022-10-17T19:05:56.650Z,5.47
2022-10-17T19:11:10.919Z,5.50
2022-10-17T19:16:16.005Z,5.53
2022-10-17T19:21:21.783Z,5.13
2022-10-17T19:26:25.402Z,5.20
2022-10-17T19:31:28.985Z,4.93
2022-10-17T19:36:34.034Z,5.30
2022-10-17T19:41:36.529Z,5.13
2022-10-17T19:46:38.517Z,5.45
2022-10-17T19:51:41.133Z,6.07
2022-10-17T19:56:44.410Z,5.47
2022-10-17T20:01:46.311Z,5.90
2022-10-17T20:06:48.002Z,7.45
2022-10-17T20:11:49.665Z,8.07
2022-10-17T20:16:52.445Z,10.00
2022-10-17T20:21:54.245Z,6.60
2022-10-17T20:26:56.287Z,6.22
2022-10-17T20:31:58.495Z,6.95
2022-10-17T20:37:01.277Z,7.05
2022-10-17T20:42:03.008Z,6.75
2022-10-17T20:47:11.930Z,7.57
2022-10-17T20:52:18.172Z,6.63
2022-10-17T20:57:19.819Z,6.35
2022-10-17T21:02:21.582Z,6.20
2022-10-17T21:07:25.225Z,6.43
2022-10-17T21:12:36.661Z,6.07
2022-10-17T21:17:44.755Z,7.13
2022-10-17T21:22:46.504Z,7.05
2022-10-17T21:27:48.254Z,6.30
2022-10-17T21:32:54.196Z,6.22
2022-10-17T21:37:56.133Z,8.63
2022-10-17T21:42:57.967Z,11.57
2022-10-17T21:48:12.612Z,5.82
2022-10-17T21:53:21.027Z,6.50
2022-10-17T21:58:22.870Z,6.80
2022-10-17T22:03:24.762Z,6.35
2022-10-17T22:08:26.470Z,7.45
2022-10-17T22:13:28.311Z,8.68
2022-10-17T22:18:29.993Z,11.00
2022-10-17T22:23:31.921Z,11.55
2022-10-17T22:28:34.696Z,11.13
2022-10-17T22:33:38.383Z,11.38
2022-10-17T22:38:40.081Z,10.38
2022-10-17T22:43:42.059Z,9.55
2022-10-17T22:48:44.407Z,12.35
2022-10-17T22:53:46.178Z,9.10
2022-10-17T22:58:47.999Z,11.20
2022-10-17T23:03:50.026Z,10.25
2022-10-17T23:08:52.247Z,10.05
2022-10-17T23:13:53.870Z,10.10
2022-10-17T23:18:55.515Z,11.02
2022-10-17T23:23:57.361Z,10.73
2022-10-17T23:28:58.998Z,12.20
2022-10-17T23:34:00.644Z,13.80
2022-10-17T23:39:02.284Z,14.18
2022-10-17T23:44:04.425Z,14.00
2022-10-17T23:49:06.284Z,14.43
2022-10-17T23:54:08.466Z,13.93
2022-10-17T23:59:10.336Z,14.10
